METAR AND TAF INFORMATION
METAR FOR SBSG
ADDS - METARS form results

(1111 UTC 19 March 2019)
Data provider http://aviationweather.gov/metar/data/
 
METAR text: SBSG 191100Z 00000KT 9999 SCT020 FEW023TCU 28/25 Q1012
Conditions at: SBSG (NATAL , BR) observed 1100 UTC 19 March 2019
Temperature: 28.0°C (82°F)
Dewpoint: 25.0°C (77°F) [RH = 84%]
Pressure (altimeter): 29.88 inches Hg (1012.0 mb)
Winds: calm
Visibility: 6 or more miles (10+ km)
Ceiling: at least 12,000 feet AGL
Clouds: scattered clouds at 2000 feet AGL
few clouds at 2300 feet AGL
Weather: no significant weather observed at this time

 AIRPORT MAP

 RUNWAY INFORMATION
Runway 12 Runway length 9843 ft Runway width 197 ft
Runway elevation 273 ft Runway displaced threshold 0 ft Runway heading 99
Runway 30 Runway length 9843 ft Runway width 197 ft
Runway elevation 264 ft Runway displaced threshold 0 ft Runway heading 279

 AIRPORT FREQUENCIES
Type ATIS Name Frequency 127.6 MHZ
Type ILS Name Frequency 109.7 MHZ
Type TWR Name Frequency 118.2 MHZ

 AIRPORT NEAR NAVIGATION AIDS



Powered by Virtual Airlines Manager [v2.6.2]